Time;durP1;ratioP1;P1;durP2;ratioP2;P2;SDS_P1;SDS_P2;PMS_P1;PMS_P2;Temp;Humidity;BMP_temperature;BMP_pressure;BME280_temperature;BME280_humidity;BME280_pressure;Samples;Min_cycle;Max_cycle;Signal;HPM_P1;HPM_P2
2021/05/02 00:00:15;;;;;;;4.57;3.10;;;10.20;99.90;;;;;;4366791;32;20508;-61
2021/05/02 00:02:42;;;;;;;5.07;3.05;;;10.20;99.90;;;;;;4372070;32;20098;-60
2021/05/02 00:05:09;;;;;;;5.37;3.25;;;10.20;99.90;;;;;;4403221;32;20081;-60
2021/05/02 00:07:36;;;;;;;5.22;3.28;;;10.20;99.90;;;;;;4388168;32;20054;-60
2021/05/02 00:10:02;;;;;;;5.37;3.17;;;10.20;99.90;;;;;;4374765;32;20059;-60
2021/05/02 00:12:29;;;;;;;5.85;3.45;;;10.10;99.90;;;;;;4370238;32;20152;-60
2021/05/02 00:14:55;;;;;;;6.78;3.78;;;10.10;99.90;;;;;;4364168;32;20085;-60
2021/05/02 00:17:22;;;;;;;5.75;3.45;;;10.10;99.90;;;;;;4362013;32;20173;-60
2021/05/02 00:19:49;;;;;;;5.28;3.70;;;10.10;99.90;;;;;;4369277;32;20215;-60
2021/05/02 00:22:19;;;;;;;5.37;3.70;;;10.00;99.90;;;;;;4385409;32;20266;-60
2021/05/02 00:24:46;;;;;;;5.07;3.65;;;10.00;99.90;;;;;;4386970;32;20101;-61
2021/05/02 00:27:13;;;;;;;6.50;3.78;;;10.00;99.90;;;;;;4374462;32;20168;-60
2021/05/02 00:29:43;;;;;;;6.90;4.00;;;10.00;99.90;;;;;;4367156;32;20609;-62
2021/05/02 00:32:09;;;;;;;5.07;3.83;;;9.90;99.90;;;;;;4351857;32;20062;-61
2021/05/02 00:34:36;;;;;;;5.97;3.87;;;9.90;99.90;;;;;;4376392;32;20520;-60
2021/05/02 00:37:06;;;;;;;6.65;4.07;;;9.90;99.90;;;;;;4375850;32;20166;-59
2021/05/02 00:39:34;;;;;;;5.05;3.62;;;9.80;99.90;;;;;;4368689;32;20456;-61
2021/05/02 00:42:07;;;;;;;5.80;3.83;;;9.80;99.90;;;;;;4377596;32;20450;-60
2021/05/02 00:44:51;;;;;;;5.57;3.67;;;9.80;99.90;;;;;;4379753;32;20149;-59
2021/05/02 00:47:19;;;;;;;5.07;3.80;;;9.70;99.90;;;;;;4365533;32;20172;-60
2021/05/02 00:49:58;;;;;;;5.85;4.22;;;9.60;99.90;;;;;;4373247;32;20161;-60
2021/05/02 00:52:50;;;;;;;6.25;4.37;;;9.60;99.90;;;;;;4367110;32;20086;-61
2021/05/02 00:55:42;;;;;;;5.82;4.10;;;9.60;99.90;;;;;;4376531;32;20145;-61
2021/05/02 00:58:10;;;;;;;5.00;3.50;;;9.60;99.90;;;;;;4363577;32;20601;-60
2021/05/02 01:00:40;;;;;;;5.70;3.97;;;9.50;99.90;;;;;;4375110;32;20097;-60
2021/05/02 01:03:07;;;;;;;5.60;4.07;;;9.40;99.90;;;;;;4377170;32;20574;-60
2021/05/02 01:05:35;;;;;;;6.68;4.00;;;9.50;99.90;;;;;;4363157;32;20089;-61
2021/05/02 01:08:03;;;;;;;5.90;4.00;;;9.50;99.90;;;;;;4359266;32;20259;-61
2021/05/02 01:10:30;;;;;;;7.05;4.40;;;9.50;99.90;;;;;;4374325;32;20501;-61
2021/05/02 01:13:01;;;;;;;6.07;4.03;;;9.40;99.90;;;;;;4366327;32;20508;-60
2021/05/02 01:15:33;;;;;;;6.55;4.55;;;9.50;99.90;;;;;;4364198;32;20077;-61
2021/05/02 01:18:00;;;;;;;7.43;4.57;;;9.50;99.90;;;;;;4376025;32;20434;-61
2021/05/02 01:20:28;;;;;;;8.00;5.15;;;9.50;99.90;;;;;;4375269;32;20105;-62
2021/05/02 01:22:59;;;;;;;6.82;4.50;;;9.50;99.90;;;;;;4375992;32;20063;-61
2021/05/02 01:25:25;;;;;;;7.55;4.78;;;9.50;99.90;;;;;;4365032;32;20081;-60
2021/05/02 01:27:57;;;;;;;6.25;4.55;;;9.50;99.90;;;;;;4355368;32;20082;-60
2021/05/02 01:30:24;;;;;;;8.70;4.87;;;9.40;99.90;;;;;;4375866;32;20079;-61
2021/05/02 01:32:50;;;;;;;9.25;4.82;;;9.40;99.90;;;;;;4363368;32;20074;-61
2021/05/02 01:35:17;;;;;;;6.15;4.40;;;9.40;99.90;;;;;;4388386;32;20166;-60
2021/05/02 01:37:44;;;;;;;8.43;4.97;;;9.40;99.90;;;;;;4375121;32;20059;-60
2021/05/02 01:40:11;;;;;;;6.47;4.70;;;9.30;99.90;;;;;;4359746;32;20623;-61
2021/05/02 01:42:38;;;;;;;7.22;5.03;;;9.40;99.90;;;;;;4362456;32;20074;-60
2021/05/02 01:45:06;;;;;;;7.68;4.62;;;9.50;99.90;;;;;;4364725;32;20067;-60
2021/05/02 01:47:32;;;;;;;7.22;4.80;;;9.50;99.90;;;;;;4385773;32;20074;-60
2021/05/02 01:50:10;;;;;;;5.60;4.20;;;9.50;99.90;;;;;;4375951;32;20536;-60
2021/05/02 01:52:43;;;;;;;8.85;4.82;;;9.50;99.90;;;;;;4359041;32;20058;-61
2021/05/02 01:55:11;;;;;;;8.00;4.87;;;9.40;99.90;;;;;;4365851;32;20162;-61
2021/05/02 01:57:37;;;;;;;8.10;4.82;;;9.50;99.90;;;;;;4375651;32;20464;-60
2021/05/02 02:00:25;;;;;;;7.55;4.97;;;9.40;99.90;;;;;;4370335;32;20108;-61
2021/05/02 02:02:58;;;;;;;5.95;4.50;;;9.50;99.90;;;;;;4364084;32;20642;-60
2021/05/02 02:05:25;;;;;;;7.03;5.00;;;9.50;99.90;;;;;;4351035;32;20595;-60
2021/05/02 02:07:51;;;;;;;6.03;4.30;;;9.60;99.90;;;;;;4362971;32;20137;-60
2021/05/02 02:10:19;;;;;;;6.65;4.40;;;9.60;99.90;;;;;;4362909;32;20066;-60
2021/05/02 02:12:46;;;;;;;7.10;4.78;;;9.60;99.90;;;;;;4372109;32;20070;-60
2021/05/02 02:15:13;;;;;;;6.53;4.45;;;9.60;99.90;;;;;;4385853;32;20485;-61
2021/05/02 02:17:40;;;;;;;6.97;4.47;;;9.70;99.90;;;;;;4350100;32;20524;-60
2021/05/02 02:20:07;;;;;;;5.65;4.18;;;9.70;99.90;;;;;;4367667;32;20453;-60
2021/05/02 02:22:41;;;;;;;6.43;4.53;;;9.80;99.90;;;;;;4348349;32;20066;-61
2021/05/02 02:25:09;;;;;;;7.37;4.60;;;9.70;99.90;;;;;;4375363;32;20073;-60
2021/05/02 02:27:35;;;;;;;6.90;4.70;;;9.80;99.90;;;;;;4355855;32;20085;-60
2021/05/02 02:30:09;;;;;;;7.25;4.82;;;9.80;99.90;;;;;;4357740;32;20511;-61
2021/05/02 02:32:43;;;;;;;8.63;5.37;;;9.90;99.90;;;;;;4371930;32;20155;-60
2021/05/02 02:35:10;;;;;;;6.82;4.87;;;9.90;99.90;;;;;;4365411;32;20098;-60
2021/05/02 02:37:36;;;;;;;8.88;4.68;;;10.00;99.90;;;;;;4356026;32;20157;-59
2021/05/02 02:40:05;;;;;;;7.18;4.97;;;10.00;99.90;;;;;;4355373;32;20097;-60
2021/05/02 02:42:31;;;;;;;7.35;5.10;;;10.20;99.90;;;;;;4358219;32;20074;-59
2021/05/02 02:45:00;;;;;;;8.98;5.00;;;10.10;99.90;;;;;;4349879;32;20585;-60
2021/05/02 02:47:39;;;;;;;7.97;5.12;;;10.10;99.90;;;;;;4376296;32;20104;-61
2021/05/02 02:50:09;;;;;;;6.65;5.10;;;10.20;99.90;;;;;;4367854;32;20170;-59
2021/05/02 02:52:56;;;;;;;7.47;4.82;;;10.20;99.90;;;;;;4360625;32;20085;-61
2021/05/02 02:55:24;;;;;;;8.05;5.45;;;10.30;99.90;;;;;;4363517;32;20528;-60
2021/05/02 02:58:01;;;;;;;7.93;5.05;;;10.30;99.90;;;;;;4366040;32;20073;-61
2021/05/02 03:00:32;;;;;;;7.00;5.10;;;10.40;99.90;;;;;;4372409;32;20066;-61
2021/05/02 03:03:09;;;;;;;9.75;5.43;;;10.30;99.90;;;;;;4364475;32;20073;-60
2021/05/02 03:05:36;;;;;;;;;;;10.30;99.90;;;;;;4349714;32;20589;-60
2021/05/02 03:08:05;;;;;;;7.70;5.45;;;10.30;99.90;;;;;;4382317;32;19971;-61
2021/05/02 03:10:31;;;;;;;6.68;4.68;;;10.40;99.90;;;;;;4373270;32;20077;-61
2021/05/02 03:12:59;;;;;;;6.68;4.75;;;10.50;99.90;;;;;;4350575;32;20101;-61
2021/05/02 03:15:28;;;;;;;6.62;4.82;;;10.40;99.90;;;;;;4366274;32;20167;-60
2021/05/02 03:18:19;;;;;;;7.45;5.50;;;10.50;99.90;;;;;;4374875;32;20081;-60
2021/05/02 03:20:47;;;;;;;7.53;5.72;;;10.50;99.90;;;;;;4372169;32;21313;-60
2021/05/02 03:23:43;;;;;;;8.43;5.22;;;10.70;99.90;;;;;;4350106;32;20085;-60
2021/05/02 03:26:11;;;;;;;8.13;5.32;;;10.90;99.90;;;;;;4368900;32;20154;-61
2021/05/02 03:28:52;;;;;;;7.78;5.05;;;10.90;99.90;;;;;;4362422;32;20070;-59
2021/05/02 03:31:21;;;;;;;8.15;5.35;;;11.00;99.90;;;;;;4374436;32;20092;-61
2021/05/02 03:33:47;;;;;;;9.10;6.25;;;11.10;99.90;;;;;;4343757;32;20058;-60
2021/05/02 03:36:19;;;;;;;8.60;6.68;;;11.10;99.90;;;;;;4379896;32;20528;-60
2021/05/02 03:38:50;;;;;;;7.75;6.00;;;11.00;99.90;;;;;;4372065;32;20081;-60
2021/05/02 03:41:18;;;;;;;8.18;5.43;;;11.00;99.90;;;;;;4350080;32;20053;-60
2021/05/02 03:43:44;;;;;;;8.70;5.70;;;11.10;99.90;;;;;;4365386;32;20489;-60
2021/05/02 03:46:23;;;;;;;8.05;5.28;;;10.90;99.90;;;;;;4361724;32;20071;-62
2021/05/02 03:48:58;;;;;;;8.02;5.70;;;10.90;99.90;;;;;;4374829;32;20154;-61
2021/05/02 03:51:29;;;;;;;7.57;5.93;;;11.00;99.90;;;;;;4353981;32;20142;-60
2021/05/02 03:53:56;;;;;;;7.93;5.75;;;11.00;99.90;;;;;;4358095;32;20082;-60
2021/05/02 03:56:39;;;;;;;7.37;5.50;;;11.10;99.90;;;;;;4359356;32;20057;-60
2021/05/02 03:59:13;;;;;;;7.65;5.57;;;11.20;99.90;;;;;;4363722;32;20101;-60
2021/05/02 04:01:50;;;;;;;6.50;5.00;;;11.00;99.90;;;;;;4375099;32;20080;-61
2021/05/02 04:04:18;;;;;;;6.85;5.60;;;11.30;99.90;;;;;;4374384;32;20078;-60
2021/05/02 04:06:45;;;;;;;8.02;5.60;;;11.20;99.90;;;;;;4375848;32;20530;-61
2021/05/02 04:09:13;;;;;;;7.87;5.68;;;11.10;99.90;;;;;;4354883;32;20069;-60
2021/05/02 04:11:39;;;;;;;7.47;4.90;;;11.20;99.90;;;;;;4361982;32;20074;-61
2021/05/02 04:14:11;;;;;;;9.10;5.70;;;11.10;99.90;;;;;;4377084;32;20093;-59
2021/05/02 04:16:37;;;;;;;10.00;5.82;;;11.20;99.90;;;;;;4373794;32;20074;-61
2021/05/02 04:19:05;;;;;;;9.15;5.22;;;11.50;99.90;;;;;;4364357;32;20604;-60
2021/05/02 04:21:32;;;;;;;7.53;5.65;;;11.50;99.90;;;;;;4362352;32;20120;-62
2021/05/02 04:23:58;;;;;;;7.95;5.95;;;11.60;99.90;;;;;;4371433;32;20081;-61
2021/05/02 04:26:25;;;;;;;8.05;5.45;;;11.40;99.90;;;;;;4356701;32;20450;-60
2021/05/02 04:28:51;;;;;;;7.43;5.87;;;11.40;99.90;;;;;;4351800;32;20070;-61
2021/05/02 04:31:18;;;;;;;7.15;5.57;;;11.50;99.90;;;;;;4364692;32;20132;-61
2021/05/02 04:33:45;;;;;;;8.65;5.12;;;11.60;99.90;;;;;;4355428;32;20098;-61
2021/05/02 04:36:11;;;;;;;7.57;5.50;;;12.00;99.90;;;;;;4375983;32;20066;-60
2021/05/02 04:38:38;;;;;;;6.93;5.30;;;12.10;99.90;;;;;;4377462;32;20089;-60
2021/05/02 04:41:04;;;;;;;7.65;5.62;;;12.20;99.90;;;;;;4378125;32;20160;-61
2021/05/02 04:43:30;;;;;;;9.27;6.22;;;12.40;99.90;;;;;;4387223;32;20063;-60
2021/05/02 04:45:57;;;;;;;10.00;6.78;;;12.10;99.90;;;;;;4351700;32;20059;-60
2021/05/02 04:48:23;;;;;;;8.93;6.10;;;12.20;99.90;;;;;;4376519;32;20078;-60
2021/05/02 04:50:49;;;;;;;8.60;6.28;;;12.40;99.90;;;;;;4365732;32;20181;-61
2021/05/02 04:53:15;;;;;;;8.77;6.00;;;12.80;99.90;;;;;;4363761;32;20525;-59
2021/05/02 04:55:42;;;;;;;9.02;6.32;;;12.70;99.90;;;;;;4379161;32;20171;-61
2021/05/02 04:58:08;;;;;;;10.40;5.80;;;13.30;99.90;;;;;;4369858;32;20070;-62
2021/05/02 05:00:35;;;;;;;8.23;5.90;;;14.20;99.90;;;;;;4385672;32;20149;-61
2021/05/02 05:03:02;;;;;;;8.98;5.90;;;13.60;99.90;;;;;;4365208;32;20177;-59
2021/05/02 05:05:29;;;;;;;8.18;6.18;;;13.50;99.90;;;;;;4376161;32;20153;-60
2021/05/02 05:07:55;;;;;;;7.97;5.93;;;13.50;99.90;;;;;;4371915;32;20154;-60
2021/05/02 05:10:22;;;;;;;9.23;6.37;;;13.60;99.90;;;;;;4370932;32;20085;-60
2021/05/02 05:12:48;;;;;;;8.50;6.00;;;12.90;99.90;;;;;;4375956;32;20086;-60
2021/05/02 05:15:14;;;;;;;8.15;5.97;;;12.80;99.90;;;;;;4363349;32;20185;-60
2021/05/02 05:17:40;;;;;;;7.62;5.78;;;12.90;99.90;;;;;;4369112;32;20500;-62
2021/05/02 05:20:08;;;;;;;8.50;5.60;;;13.50;99.90;;;;;;4383400;32;20086;-60
2021/05/02 05:22:34;;;;;;;7.55;5.78;;;13.70;99.90;;;;;;4366009;32;20074;-60
2021/05/02 05:25:00;;;;;;;7.72;6.10;;;13.40;99.90;;;;;;4375889;32;20077;-61
2021/05/02 05:27:26;;;;;;;8.20;5.47;;;12.90;99.90;;;;;;4355320;32;20077;-61
2021/05/02 05:29:53;;;;;;;7.35;5.62;;;13.10;99.90;;;;;;4367653;32;20546;-60
2021/05/02 05:32:19;;;;;;;7.70;5.82;;;13.00;99.90;;;;;;4376045;32;20516;-61
2021/05/02 05:34:45;;;;;;;10.02;6.05;;;13.20;99.90;;;;;;4389095;32;20101;-60
2021/05/02 05:37:11;;;;;;;7.87;5.55;;;13.00;99.90;;;;;;4365357;32;20490;-61
2021/05/02 05:39:38;;;;;;;6.78;5.22;;;12.80;99.90;;;;;;4387108;32;20081;-60
2021/05/02 05:42:08;;;;;;;7.85;5.53;;;12.80;99.90;;;;;;4346720;32;20448;-61
2021/05/02 05:44:34;;;;;;;8.30;5.37;;;12.90;99.90;;;;;;4381450;32;20184;-61
2021/05/02 05:47:00;;;;;;;7.50;5.95;;;12.90;99.90;;;;;;4376818;32;20070;-62
2021/05/02 05:49:26;;;;;;;8.25;5.30;;;12.70;99.90;;;;;;4387463;32;20620;-60
2021/05/02 05:51:53;;;;;;;7.72;5.70;;;12.90;99.90;;;;;;4376856;32;20074;-60
2021/05/02 05:54:23;;;;;;;7.68;5.30;;;12.70;99.90;;;;;;4371484;32;20088;-61
2021/05/02 05:56:49;;;;;;;8.43;5.90;;;12.90;99.90;;;;;;4363225;32;20066;-61
2021/05/02 05:59:16;;;;;;;8.75;7.00;;;13.00;99.90;;;;;;4351794;32;20105;-61
2021/05/02 06:01:42;;;;;;;7.57;5.40;;;13.20;99.90;;;;;;4372465;32;20077;-61
2021/05/02 06:04:08;;;;;;;7.97;5.97;;;13.30;99.90;;;;;;4368806;32;20066;-61
2021/05/02 06:06:38;;;;;;;9.20;6.25;;;14.10;99.90;;;;;;4374776;32;20057;-60
2021/05/02 06:09:07;;;;;;;8.43;5.90;;;14.00;99.90;;;;;;4364334;32;20068;-61
2021/05/02 06:11:33;;;;;;;7.93;6.28;;;13.10;99.90;;;;;;4361270;32;20169;-60
2021/05/02 06:14:00;;;;;;;7.53;5.57;;;13.20;99.90;;;;;;4376730;32;20174;-61
2021/05/02 06:16:26;;;;;;;9.10;6.30;;;13.70;99.90;;;;;;4370375;32;20448;-62
2021/05/02 06:18:53;;;;;;;8.57;5.68;;;13.70;99.90;;;;;;4374753;32;20140;-61
2021/05/02 06:21:21;;;;;;;7.85;5.45;;;13.50;99.90;;;;;;4352856;32;20477;-61
2021/05/02 06:23:48;;;;;;;6.93;5.62;;;13.40;99.90;;;;;;4344757;32;20538;-61
2021/05/02 06:26:15;;;;;;;7.55;5.60;;;13.20;99.90;;;;;;4356969;32;20101;-61
2021/05/02 06:28:42;;;;;;;7.72;5.30;;;13.50;99.90;;;;;;4350113;32;20489;-61
2021/05/02 06:31:08;;;;;;;7.78;5.45;;;13.50;99.90;;;;;;4387081;32;20180;-61
2021/05/02 06:33:35;;;;;;;7.43;5.22;;;13.50;99.90;;;;;;4357145;32;20580;-61
2021/05/02 06:36:02;;;;;;;6.35;4.40;;;13.60;99.90;;;;;;4352234;32;20158;-60
2021/05/02 06:38:28;;;;;;;6.30;4.80;;;14.10;99.90;;;;;;4379896;32;20150;-60
2021/05/02 06:40:55;;;;;;;7.22;5.00;;;14.80;99.90;;;;;;4375154;32;20074;-61
2021/05/02 06:43:22;;;;;;;7.78;5.70;;;14.70;99.90;;;;;;4363331;32;20070;-62
2021/05/02 06:45:49;;;;;;;7.35;5.68;;;14.30;99.90;;;;;;4332940;32;20163;-61
2021/05/02 06:48:15;;;;;;;7.43;5.47;;;14.30;99.90;;;;;;4371697;32;20053;-60
2021/05/02 06:50:41;;;;;;;7.72;5.50;;;14.70;99.90;;;;;;4376837;32;20077;-61
2021/05/02 06:53:08;;;;;;;6.35;4.78;;;15.20;99.90;;;;;;4352873;32;20094;-61
2021/05/02 06:55:34;;;;;;;6.78;4.12;;;15.30;99.90;;;;;;4375027;32;20086;-60
2021/05/02 06:58:00;;;;;;;6.95;5.28;;;15.50;99.90;;;;;;4374591;32;20437;-60
2021/05/02 07:00:27;;;;;;;6.97;5.65;;;15.10;99.90;;;;;;4383106;32;20456;-60
2021/05/02 07:02:54;;;;;;;7.62;5.10;;;14.70;99.90;;;;;;4364037;32;20062;-60
2021/05/02 07:05:21;;;;;;;9.32;5.75;;;14.70;99.90;;;;;;4374492;32;20086;-61
2021/05/02 07:07:47;;;;;;;6.97;5.22;;;14.90;99.90;;;;;;4370581;32;20482;-61
2021/05/02 07:10:14;;;;;;;8.00;5.45;;;15.00;99.90;;;;;;4362490;32;20074;-60
2021/05/02 07:12:40;;;;;;;6.12;4.50;;;14.70;99.90;;;;;;4361967;32;20098;-61
2021/05/02 07:15:07;;;;;;;6.93;5.10;;;14.80;99.90;;;;;;4365261;32;20169;-62
2021/05/02 07:17:33;;;;;;;7.05;4.70;;;15.00;99.90;;;;;;4362323;32;20074;-61
2021/05/02 07:20:00;;;;;;;8.05;4.47;;;15.20;99.90;;;;;;4383402;32;20070;-60
2021/05/02 07:22:28;;;;;;;6.97;5.07;;;15.70;99.90;;;;;;4369331;32;20078;-60
2021/05/02 07:24:54;;;;;;;6.87;5.25;;;16.00;99.90;;;;;;4362258;32;20062;-61
2021/05/02 07:27:21;;;;;;;6.50;4.85;;;15.20;99.90;;;;;;4350342;32;20105;-60
2021/05/02 07:29:47;;;;;;;5.80;4.60;;;15.80;99.90;;;;;;4365510;32;20106;-60
2021/05/02 07:32:13;;;;;;;9.40;5.60;;;16.60;99.90;;;;;;4374683;32;20070;-60
2021/05/02 07:34:40;;;;;;;7.12;5.10;;;15.80;99.90;;;;;;4361422;32;20078;-61
2021/05/02 07:37:06;;;;;;;6.93;5.20;;;15.30;99.90;;;;;;4364487;32;20054;-60
2021/05/02 07:39:32;;;;;;;6.57;4.95;;;15.50;99.90;;;;;;4360154;32;20077;-61
2021/05/02 07:41:58;;;;;;;7.65;5.43;;;15.30;99.90;;;;;;4371592;32;20585;-60
2021/05/02 07:44:25;;;;;;;7.82;4.87;;;15.30;99.90;;;;;;4377586;32;20068;-60
2021/05/02 07:46:51;;;;;;;9.25;4.78;;;15.10;99.90;;;;;;4355291;32;20189;-60
2021/05/02 07:49:17;;;;;;;7.12;5.10;;;15.50;99.90;;;;;;4377269;32;20646;-61
2021/05/02 07:51:44;;;;;;;6.15;4.65;;;16.30;99.90;;;;;;4369061;32;20088;-61
2021/05/02 07:54:10;;;;;;;6.00;4.57;;;16.40;99.90;;;;;;4378615;32;20486;-62
2021/05/02 07:56:36;;;;;;;8.15;5.40;;;16.00;99.90;;;;;;4375781;32;20155;-61
2021/05/02 07:59:03;;;;;;;6.78;5.03;;;16.20;99.90;;;;;;4378078;32;20082;-60
2021/05/02 08:01:29;;;;;;;7.05;5.20;;;16.60;99.90;;;;;;4388068;32;20074;-61
2021/05/02 08:03:56;;;;;;;7.32;5.37;;;16.80;99.90;;;;;;4352798;32;20086;-60
2021/05/02 08:06:22;;;;;;;8.57;5.45;;;16.90;99.90;;;;;;4381018;32;20089;-61
2021/05/02 08:08:49;;;;;;;8.20;4.72;;;16.20;99.90;;;;;;4353116;32;20097;-60
2021/05/02 08:11:15;;;;;;;8.27;4.43;;;15.40;99.90;;;;;;4380164;32;20078;-61
2021/05/02 08:13:41;;;;;;;4.78;3.35;;;15.70;99.90;;;;;;4375794;32;20075;-60
2021/05/02 08:16:08;;;;;;;4.37;3.22;;;16.00;99.90;;;;;;4364719;32;20577;-61
2021/05/02 08:18:35;;;;;;;5.05;3.60;;;15.80;99.90;;;;;;4384908;32;20182;-61
2021/05/02 08:21:03;;;;;;;5.22;3.85;;;16.00;99.90;;;;;;4377771;32;20073;-62
2021/05/02 08:23:30;;;;;;;5.65;4.10;;;15.70;99.90;;;;;;4377152;32;20094;-61
2021/05/02 08:25:56;;;;;;;5.15;3.87;;;16.10;99.90;;;;;;4356633;32;20076;-61
2021/05/02 08:28:22;;;;;;;5.53;4.32;;;16.70;99.90;;;;;;4372141;32;20174;-60
2021/05/02 08:30:49;;;;;;;5.50;3.80;;;17.20;99.90;;;;;;4378088;32;20070;-60
2021/05/02 08:33:15;;;;;;;5.40;3.92;;;17.70;99.90;;;;;;4376573;32;20489;-61
2021/05/02 08:35:41;;;;;;;6.62;4.15;;;17.60;99.90;;;;;;4377945;32;20082;-61
2021/05/02 08:38:07;;;;;;;5.70;4.00;;;17.00;99.90;;;;;;4358562;32;20489;-60
2021/05/02 08:40:33;;;;;;;6.43;4.25;;;16.60;99.90;;;;;;4372153;32;20156;-60
2021/05/02 08:43:06;;;;;;;6.43;4.95;;;16.80;99.90;;;;;;4376123;32;20092;-61
2021/05/02 08:45:34;;;;;;;5.82;4.75;;;16.40;99.90;;;;;;4374685;32;20074;-62
2021/05/02 08:48:00;;;;;;;6.65;4.20;;;16.50;99.90;;;;;;4369050;32;20086;-62
2021/05/02 08:50:26;;;;;;;6.57;4.18;;;16.40;99.90;;;;;;4389115;32;20073;-61
2021/05/02 08:52:53;;;;;;;5.57;4.40;;;16.50;99.90;;;;;;4379679;32;20577;-60
2021/05/02 08:55:19;;;;;;;5.43;4.20;;;16.80;99.90;;;;;;4375942;32;20077;-60
2021/05/02 08:57:45;;;;;;;7.87;4.20;;;17.00;99.90;;;;;;4383497;32;20520;-61
2021/05/02 09:00:12;;;;;;;5.05;3.78;;;17.40;99.90;;;;;;4368483;32;20066;-60
2021/05/02 09:02:39;;;;;;;4.47;3.60;;;17.00;99.90;;;;;;4380101;32;20074;-61
2021/05/02 09:05:07;;;;;;;5.00;3.30;;;17.10;99.90;;;;;;4377732;32;20085;-62
2021/05/02 09:07:48;;;;;;;5.47;3.50;;;17.80;99.90;;;;;;4351506;32;20147;-61
2021/05/02 09:10:17;;;;;;;4.43;3.30;;;16.90;99.90;;;;;;4376442;32;20169;-61
2021/05/02 09:12:58;;;;;;;4.95;3.80;;;17.80;99.90;;;;;;4388088;32;20133;-60
2021/05/02 09:15:24;;;;;;;5.93;3.58;;;17.50;97.50;;;;;;4377549;32;20066;-60
2021/05/02 09:17:58;;;;;;;6.25;3.67;;;17.40;99.90;;;;;;4367899;32;20170;-60
2021/05/02 09:21:00;;;;;;;5.78;3.65;;;17.90;97.20;;;;;;4358844;32;20074;-61
2021/05/02 09:23:38;;;;;;;6.43;3.97;;;17.60;96.30;;;;;;4354133;32;20075;-61
2021/05/02 09:26:05;;;;;;;5.72;3.62;;;17.70;95.90;;;;;;4357905;32;20062;-61
2021/05/02 09:28:44;;;;;;;4.43;3.17;;;17.60;97.70;;;;;;4374176;32;20522;-62
2021/05/02 09:31:13;;;;;;;5.65;3.83;;;17.30;98.90;;;;;;4363926;32;20150;-61
2021/05/02 09:33:39;;;;;;;5.40;3.92;;;16.70;99.40;;;;;;4376166;32;20070;-60
2021/05/02 09:36:11;;;;;;;7.72;4.03;;;16.50;99.30;;;;;;4354255;32;20434;-61
2021/05/02 09:38:38;;;;;;;4.07;3.35;;;17.20;96.60;;;;;;4372150;32;20180;-61
2021/05/02 09:41:04;;;;;;;5.20;3.40;;;17.80;92.30;;;;;;4363340;32;20085;-60
2021/05/02 09:43:46;;;;;;;7.00;4.30;;;17.90;92.50;;;;;;4366313;32;20073;-61
2021/05/02 09:46:36;;;;;;;5.40;3.65;;;17.50;94.30;;;;;;4377419;32;20073;-61
2021/05/02 09:49:09;;;;;;;6.18;4.35;;;17.10;96.60;;;;;;4377521;32;20091;-61
2021/05/02 09:51:43;;;;;;;5.87;4.22;;;16.70;99.00;;;;;;4370982;32;20194;-61
2021/05/02 09:54:17;;;;;;;9.20;4.50;;;17.00;96.30;;;;;;4357787;32;20070;-60
2021/05/02 09:56:49;;;;;;;6.35;4.35;;;16.90;95.90;;;;;;4375673;32;20078;-61
2021/05/02 09:59:19;;;;;;;5.43;3.85;;;16.70;97.00;;;;;;4376418;32;20096;-61
2021/05/02 10:02:26;;;;;;;4.65;3.53;;;16.60;97.20;;;;;;4397062;32;20468;-62
2021/05/02 10:04:56;;;;;;;5.10;4.00;;;17.00;96.80;;;;;;4363049;32;20066;-60
2021/05/02 10:07:28;;;;;;;5.60;3.72;;;17.00;92.90;;;;;;4365659;32;20161;-62
2021/05/02 10:09:55;;;;;;;5.22;3.70;;;17.30;92.50;;;;;;4383449;32;20053;-60
2021/05/02 10:12:21;;;;;;;5.65;3.67;;;17.60;92.20;;;;;;4356448;32;20066;-63
2021/05/02 10:14:48;;;;;;;4.95;3.67;;;17.30;90.40;;;;;;4376566;32;20094;-61
2021/05/02 10:17:15;;;;;;;5.18;3.75;;;17.30;91.40;;;;;;4387584;32;20153;-61
2021/05/02 10:19:41;;;;;;;5.43;3.78;;;17.30;93.30;;;;;;4362379;32;20145;-60
2021/05/02 10:22:08;;;;;;;4.78;3.40;;;17.10;93.40;;;;;;4364623;32;20090;-61
2021/05/02 10:24:35;;;;;;;3.75;2.75;;;17.30;92.30;;;;;;4367098;32;20077;-60
2021/05/02 10:27:09;;;;;;;7.45;4.00;;;17.30;89.30;;;;;;4375141;32;20232;-60
2021/05/02 10:29:38;;;;;;;4.00;2.92;;;17.40;90.60;;;;;;4376571;32;20057;-60
2021/05/02 10:32:06;;;;;;;7.68;4.18;;;17.30;90.60;;;;;;4375192;32;20537;-60
2021/05/02 10:34:38;;;;;;;8.18;5.32;;;17.60;90.40;;;;;;4370926;32;20097;-60
2021/05/02 10:37:44;;;;;;;8.90;4.95;;;16.90;92.50;;;;;;4382745;32;20511;-62
2021/05/02 10:40:19;;;;;;;8.90;5.32;;;16.80;92.30;;;;;;4371556;32;20062;-61
2021/05/02 10:43:03;;;;;;;8.10;4.80;;;16.80;93.50;;;;;;4362359;32;20165;-62
2021/05/02 10:45:42;;;;;;;7.95;4.80;;;17.20;91.60;;;;;;4375122;32;20070;-60
2021/05/02 10:48:14;;;;;;;7.07;4.82;;;16.60;92.20;;;;;;4378351;32;20077;-61
2021/05/02 10:50:54;;;;;;;5.65;4.07;;;16.60;93.00;;;;;;4372959;32;20069;-60
2021/05/02 10:53:22;;;;;;;8.63;5.50;;;16.80;90.80;;;;;;4375753;32;20106;-61
2021/05/02 10:56:10;;;;;;;5.15;3.80;;;17.00;89.40;;;;;;4377074;32;20070;-61
2021/05/02 10:58:38;;;;;;;5.95;4.35;;;16.80;91.00;;;;;;4365800;32;20073;-60
2021/05/02 11:01:10;;;;;;;4.43;3.05;;;16.40;92.00;;;;;;4376115;32;20234;-61
2021/05/02 11:03:39;;;;;;;4.93;3.78;;;16.60;92.60;;;;;;4364984;32;20116;-62
2021/05/02 11:06:10;;;;;;;6.12;3.50;;;17.00;90.40;;;;;;4390184;32;20094;-61
2021/05/02 11:08:50;;;;;;;4.90;3.50;;;17.70;86.00;;;;;;4366778;32;20162;-61
2021/05/02 11:11:38;;;;;;;4.37;3.20;;;17.90;79.10;;;;;;4381250;32;20070;-60
2021/05/02 11:16:53;;;;;;;4.62;3.20;;;18.10;75.60;;;;;;4380492;32;20488;-60
2021/05/02 11:19:23;;;;;;;4.07;3.30;;;18.00;75.80;;;;;;4381752;32;20084;-61
2021/05/02 11:21:55;;;;;;;4.15;3.00;;;17.60;76.20;;;;;;4382530;32;20127;-60
2021/05/02 11:24:25;;;;;;;5.00;3.22;;;17.30;76.60;;;;;;4382008;32;20095;-59
2021/05/02 11:30:10;;;;;;;4.03;3.03;;;18.20;74.20;;;;;;4361499;32;20122;-60
2021/05/02 11:32:39;;;;;;;5.12;3.92;;;18.60;69.90;;;;;;4370498;32;20497;-62
2021/05/02 11:35:10;;;;;;;5.32;3.83;;;18.30;70.40;;;;;;4351402;32;20096;-61
2021/05/02 11:37:56;;;;;;;3.95;2.83;;;18.50;69.50;;;;;;4350510;32;20089;-60
2021/05/02 11:40:28;;;;;;;5.18;3.30;;;17.70;73.30;;;;;;4374994;32;20585;-60
2021/05/02 11:43:00;;;;;;;5.22;3.37;;;17.60;73.80;;;;;;4387135;32;20088;-61
2021/05/02 11:45:31;;;;;;;3.92;2.90;;;17.80;71.80;;;;;;4341807;32;20085;-61
2021/05/02 11:47:58;;;;;;;3.80;3.03;;;18.50;66.60;;;;;;4375052;32;20158;-61
2021/05/02 11:50:24;;;;;;;3.12;2.05;;;18.50;66.10;;;;;;4385572;32;20074;-60
2021/05/02 11:52:55;;;;;;;5.90;2.85;;;18.60;66.30;;;;;;4362341;32;20627;-61
2021/05/02 11:55:36;;;;;;;3.53;2.70;;;18.30;68.80;;;;;;4374775;32;20113;-61
2021/05/02 11:58:21;;;;;;;3.67;2.70;;;18.40;66.20;;;;;;4374554;32;20070;-60
2021/05/02 12:00:49;;;;;;;3.10;2.30;;;18.60;64.00;;;;;;4359524;32;20116;-61
2021/05/02 12:03:18;;;;;;;4.40;2.83;;;18.30;65.20;;;;;;4374788;32;20075;-60
2021/05/02 12:05:55;;;;;;;3.35;2.53;;;18.60;63.40;;;;;;4367937;32;20078;-61
2021/05/02 12:08:23;;;;;;;3.17;2.70;;;19.00;59.90;;;;;;4356745;32;20098;-60
2021/05/02 12:10:55;;;;;;;3.47;2.67;;;18.90;60.10;;;;;;4372234;32;20456;-61
2021/05/02 12:13:33;;;;;;;5.70;3.37;;;18.80;59.50;;;;;;4374513;32;20496;-61
2021/05/02 12:16:09;;;;;;;4.12;2.72;;;18.30;59.40;;;;;;4355111;32;20077;-61
2021/05/02 12:19:04;;;;;;;4.12;3.00;;;18.50;61.10;;;;;;4374345;32;20086;-60
2021/05/02 12:21:46;;;;;;;3.20;2.78;;;18.70;61.60;;;;;;4361441;32;20155;-61
2021/05/02 12:24:27;;;;;;;4.28;2.87;;;18.00;61.20;;;;;;4374449;32;20496;-60
2021/05/02 12:27:00;;;;;;;3.85;2.62;;;18.00;61.20;;;;;;4375081;32;20066;-59
2021/05/02 12:29:28;;;;;;;5.60;2.60;;;18.40;59.20;;;;;;4378822;32;20077;-60
2021/05/02 12:32:06;;;;;;;3.37;2.50;;;18.90;54.60;;;;;;4376980;32;20501;-60
2021/05/02 12:34:43;;;;;;;4.18;2.83;;;19.10;56.40;;;;;;4364719;32;20066;-60
2021/05/02 12:37:14;;;;;;;4.53;3.20;;;18.30;57.10;;;;;;4368323;32;20179;-61
2021/05/02 12:39:41;;;;;;;4.75;3.12;;;18.40;57.00;;;;;;4367442;32;20093;-60
2021/05/02 12:42:08;;;;;;;4.15;2.60;;;18.90;54.50;;;;;;4357160;32;20449;-61
2021/05/02 12:44:35;;;;;;;3.42;2.62;;;18.30;55.70;;;;;;4339994;32;20516;-61
2021/05/02 12:47:04;;;;;;;2.80;2.50;;;18.40;54.40;;;;;;4364252;32;20577;-61
2021/05/02 12:49:33;;;;;;;3.30;2.50;;;19.00;53.10;;;;;;4366824;32;20066;-60
2021/05/02 12:52:03;;;;;;;4.20;2.92;;;19.20;51.80;;;;;;4354209;32;20070;-62
2021/05/02 12:54:34;;;;;;;2.83;2.50;;;19.10;53.60;;;;;;4372183;32;20070;-61
2021/05/02 12:57:15;;;;;;;4.00;2.60;;;19.00;52.10;;;;;;4365184;32;20166;-60
2021/05/02 12:59:54;;;;;;;2.92;2.50;;;19.10;53.70;;;;;;4368823;32;20070;-61
2021/05/02 13:02:35;;;;;;;3.45;2.78;;;18.80;54.90;;;;;;4382228;32;20054;-61
2021/05/02 13:05:12;;;;;;;4.78;2.97;;;18.70;54.30;;;;;;4377536;32;20082;-60
2021/05/02 13:07:43;;;;;;;4.43;2.87;;;19.10;53.90;;;;;;4377447;32;20067;-60